Time;durP1;ratioP1;P1;durP2;ratioP2;P2;SDS_P1;SDS_P2;PMS_P1;PMS_P2;Temp;Humidity;BMP_temperature;BMP_pressure;BME280_temperature;BME280_humidity;BME280_pressure;Samples;Min_cycle;Max_cycle;Signal;HPM_P1;HPM_P2
2022/01/13 00:01:39;;;;;;;51.15;24.05;;;5.40;99.90;;;;;;5124048;27;20063;-80
2022/01/13 00:04:05;;;;;;;59.70;24.15;;;5.40;99.90;;;;;;5156715;27;20054;-78
2022/01/13 00:06:32;;;;;;;60.90;23.90;;;5.40;99.90;;;;;;5153169;27;20047;-79
2022/01/13 00:08:58;;;;;;;57.53;22.45;;;5.40;99.90;;;;;;5127096;27;20057;-79
2022/01/13 00:11:25;;;;;;;64.60;22.58;;;5.50;99.90;;;;;;5146150;27;20043;-78
2022/01/13 00:14:07;;;;;;;50.85;22.08;;;5.50;99.90;;;;;;5129565;27;20047;-79
2022/01/13 00:16:40;;;;;;;49.17;22.55;;;5.50;99.90;;;;;;5149197;27;20550;-80
2022/01/13 00:19:19;;;;;;;48.30;21.45;;;5.50;99.90;;;;;;5143237;27;20051;-79
2022/01/13 00:21:52;;;;;;;53.03;21.92;;;5.60;99.90;;;;;;5126628;27;20065;-79
2022/01/13 00:24:18;;;;;;;57.97;23.05;;;5.60;99.90;;;;;;5129071;27;20129;-78
2022/01/13 00:26:46;;;;;;;55.97;23.88;;;5.60;99.90;;;;;;5132037;27;20467;-79
2022/01/13 00:29:13;;;;;;;54.92;22.60;;;5.50;99.90;;;;;;5143256;27;20051;-79
2022/01/13 00:31:42;;;;;;;58.05;23.27;;;5.50;99.90;;;;;;5130665;27;20141;-79
2022/01/13 00:34:08;;;;;;;56.80;22.90;;;5.50;99.90;;;;;;5128851;27;20119;-79
2022/01/13 00:36:35;;;;;;;62.85;24.67;;;5.50;99.90;;;;;;5142956;27;20505;-79
2022/01/13 00:39:01;;;;;;;55.00;23.92;;;5.50;99.90;;;;;;5130670;27;20409;-79
2022/01/13 00:41:29;;;;;;;69.32;25.10;;;5.50;99.90;;;;;;5150058;27;20496;-79
2022/01/13 00:43:55;;;;;;;76.75;27.33;;;5.50;99.90;;;;;;5141885;27;20051;-80
2022/01/13 00:46:24;;;;;;;66.00;25.83;;;5.50;99.90;;;;;;5122937;27;20059;-79
2022/01/13 00:48:51;;;;;;;74.40;27.35;;;5.50;99.90;;;;;;5137284;27;20050;-80
2022/01/13 00:51:17;;;;;;;73.35;24.83;;;5.50;99.90;;;;;;5133109;27;20481;-78
2022/01/13 00:53:44;;;;;;;59.40;21.30;;;5.40;99.90;;;;;;5120041;27;20050;-78
2022/01/13 00:56:10;;;;;;;66.53;25.25;;;5.40;99.90;;;;;;5128133;27;20054;-79
2022/01/13 00:58:37;;;;;;;67.30;23.63;;;5.40;99.90;;;;;;5131054;27;20113;-80
2022/01/13 01:01:03;;;;;;;58.65;22.73;;;5.40;99.90;;;;;;5146895;27;20054;-79
2022/01/13 01:03:30;;;;;;;66.07;22.58;;;5.40;99.90;;;;;;5147949;27;20061;-78
2022/01/13 01:05:57;;;;;;;77.60;23.13;;;5.40;99.90;;;;;;5123393;27;20050;-79
2022/01/13 01:08:23;;;;;;;61.65;22.27;;;5.40;99.90;;;;;;5154422;27;20046;-79
2022/01/13 01:10:52;;;;;;;73.05;23.45;;;5.40;99.90;;;;;;5129367;27;20047;-79
2022/01/13 01:13:21;;;;;;;63.08;24.67;;;5.40;99.90;;;;;;5122086;27;20099;-79
2022/01/13 01:15:50;;;;;;;76.20;28.60;;;5.40;99.90;;;;;;5121883;27;20555;-79
2022/01/13 01:18:27;;;;;;;62.95;26.52;;;5.30;99.90;;;;;;5136232;27;20566;-79
2022/01/13 01:21:15;;;;;;;71.47;25.85;;;5.40;99.90;;;;;;5128808;27;20055;-79
2022/01/13 01:23:58;;;;;;;67.70;24.92;;;5.40;99.90;;;;;;5124399;27;20050;-80
2022/01/13 01:26:30;;;;;;;67.03;25.60;;;5.40;99.90;;;;;;5118730;27;20410;-78
2022/01/13 01:29:03;;;;;;;89.85;26.42;;;5.40;99.90;;;;;;5144449;27;20061;-79
2022/01/13 01:31:32;;;;;;;55.10;23.38;;;5.30;99.90;;;;;;5139849;27;20393;-78
2022/01/13 01:34:14;;;;;;;72.45;25.08;;;5.40;99.90;;;;;;5117471;27;20104;-79
2022/01/13 01:36:40;;;;;;;77.78;25.23;;;5.30;99.90;;;;;;5139440;27;20047;-78
2022/01/13 01:39:08;;;;;;;63.65;24.27;;;5.40;99.90;;;;;;5126180;27;20046;-79
2022/01/13 01:41:34;;;;;;;70.18;23.80;;;5.30;99.90;;;;;;5135551;27;20494;-78
2022/01/13 01:44:01;;;;;;;70.15;21.70;;;5.40;99.90;;;;;;5116436;27;20054;-79
2022/01/13 01:46:28;;;;;;;69.57;23.67;;;5.30;99.90;;;;;;5117400;27;20043;-80
2022/01/13 01:48:54;;;;;;;63.85;22.40;;;5.40;99.90;;;;;;5136457;27;20073;-80
2022/01/13 01:51:21;;;;;;;61.03;20.77;;;5.30;99.90;;;;;;5129338;27;20058;-79
2022/01/13 01:53:48;;;;;;;53.88;19.58;;;5.40;99.90;;;;;;5122367;27;20047;-80
2022/01/13 01:56:14;;;;;;;49.55;18.58;;;5.30;99.90;;;;;;5143949;27;20051;-79
2022/01/13 01:58:41;;;;;;;63.03;19.52;;;5.40;99.90;;;;;;5118597;27;20047;-79
2022/01/13 02:01:07;;;;;;;52.05;21.08;;;5.30;99.90;;;;;;5116110;27;20088;-79
2022/01/13 02:03:34;;;;;;;65.35;21.65;;;5.40;99.90;;;;;;5143184;27;20501;-79
2022/01/13 02:06:01;;;;;;;53.65;19.05;;;5.40;99.90;;;;;;5117179;27;20043;-79
2022/01/13 02:08:27;;;;;;;47.70;17.92;;;5.30;99.90;;;;;;5141019;27;20062;-79
2022/01/13 02:10:54;;;;;;;61.63;21.13;;;5.40;99.90;;;;;;5141414;27;20070;-80
2022/01/13 02:13:23;;;;;;;66.53;23.95;;;5.40;99.90;;;;;;5140369;27;20042;-80
2022/01/13 02:16:01;;;;;;;67.20;23.88;;;5.30;99.90;;;;;;5126655;27;20103;-80
2022/01/13 02:18:27;;;;;;;70.53;23.75;;;5.30;99.90;;;;;;5123245;27;20039;-80
2022/01/13 02:20:54;;;;;;;67.97;26.20;;;5.30;99.90;;;;;;5122720;27;20046;-81
2022/01/13 02:23:20;;;;;;;85.65;27.45;;;5.30;99.90;;;;;;5127117;27;20051;-79
2022/01/13 02:25:47;;;;;;;85.65;26.42;;;5.30;99.90;;;;;;5133194;27;20049;-79
2022/01/13 02:28:13;;;;;;;58.47;25.08;;;5.30;99.90;;;;;;5142802;27;20055;-80
2022/01/13 02:30:40;;;;;;;68.38;24.13;;;5.30;99.90;;;;;;5121041;27;20047;-79
2022/01/13 02:33:07;;;;;;;82.65;25.65;;;5.30;99.90;;;;;;5150304;27;20050;-80
2022/01/13 02:35:33;;;;;;;58.13;23.73;;;5.30;99.90;;;;;;5149404;27;20047;-79
2022/01/13 02:38:00;;;;;;;60.85;23.70;;;5.30;99.90;;;;;;5116361;27;20063;-79
2022/01/13 02:40:26;;;;;;;57.25;25.50;;;5.20;99.90;;;;;;5141352;27;20047;-80
2022/01/13 02:42:53;;;;;;;71.82;21.95;;;5.20;99.90;;;;;;5123991;27;20447;-79
2022/01/13 02:45:21;;;;;;;62.03;24.15;;;5.20;99.90;;;;;;5125946;27;20474;-80
2022/01/13 02:48:25;;;;;;;71.13;23.63;;;5.20;99.90;;;;;;5125525;27;20047;-79
2022/01/13 02:50:48;;;;;;;81.57;25.58;;;5.20;99.90;;;;;;5119729;27;20130;-79
2022/01/13 02:53:14;;;;;;;68.88;25.67;;;5.20;99.90;;;;;;5122074;27;20070;-80
2022/01/13 02:55:41;;;;;;;83.05;24.35;;;5.20;99.90;;;;;;5123328;27;20046;-80
2022/01/13 02:58:08;;;;;;;72.75;21.10;;;5.20;99.90;;;;;;5119664;27;20050;-79
2022/01/13 03:00:34;;;;;;;64.93;22.35;;;5.10;99.90;;;;;;5123785;27;20047;-80
2022/01/13 03:03:01;;;;;;;58.15;23.45;;;5.10;99.90;;;;;;5139331;27;20055;-79
2022/01/13 03:05:27;;;;;;;61.40;23.02;;;5.10;99.90;;;;;;5115962;27;20050;-80
2022/01/13 03:07:54;;;;;;;77.55;25.88;;;5.10;99.90;;;;;;5139769;27;20049;-79
2022/01/13 03:10:20;;;;;;;87.32;24.63;;;5.10;99.90;;;;;;5125564;27;20051;-78
2022/01/13 03:12:47;;;;;;;65.50;22.15;;;5.10;99.90;;;;;;5151070;27;20053;-80
2022/01/13 03:15:14;;;;;;;68.40;23.10;;;5.10;99.90;;;;;;5126281;27;20705;-79
2022/01/13 03:17:40;;;;;;;66.20;21.13;;;5.10;99.90;;;;;;5114675;27;20043;-80
2022/01/13 03:20:07;;;;;;;69.22;20.88;;;5.10;99.90;;;;;;5132125;27;20057;-80
2022/01/13 03:22:33;;;;;;;48.13;22.63;;;5.10;99.90;;;;;;5121601;27;20039;-80
2022/01/13 03:25:00;;;;;;;60.28;21.35;;;5.10;99.90;;;;;;5122273;27;20051;-80
2022/01/13 03:27:34;;;;;;;55.20;20.77;;;5.20;99.90;;;;;;5128989;27;20042;-79
2022/01/13 03:30:02;;;;;;;68.50;21.77;;;5.20;99.90;;;;;;5126512;27;20066;-80
2022/01/13 03:32:28;;;;;;;58.25;22.55;;;5.20;99.90;;;;;;5123737;27;20088;-79
2022/01/13 03:34:55;;;;;;;60.53;22.50;;;5.20;99.90;;;;;;5120237;27;20066;-80
2022/01/13 03:37:21;;;;;;;63.22;22.50;;;5.20;99.90;;;;;;5125727;27;20043;-78
2022/01/13 03:39:48;;;;;;;44.47;20.60;;;5.20;99.90;;;;;;5121909;27;20035;-79
2022/01/13 03:42:14;;;;;;;65.75;22.35;;;5.20;99.90;;;;;;5121684;27;20058;-80
2022/01/13 03:44:41;;;;;;;66.25;21.45;;;5.20;99.90;;;;;;5121551;27;20047;-79
2022/01/13 03:47:09;;;;;;;62.17;20.15;;;5.20;99.90;;;;;;5128208;27;20466;-79
2022/01/13 03:49:36;;;;;;;63.55;21.80;;;5.20;99.90;;;;;;5128657;27;20126;-80
2022/01/13 03:52:03;;;;;;;37.60;18.13;;;5.20;99.90;;;;;;5116910;27;20116;-79
2022/01/13 03:54:30;;;;;;;59.10;20.20;;;5.20;99.90;;;;;;5132460;27;20042;-78
2022/01/13 03:56:56;;;;;;;56.40;20.35;;;5.20;99.90;;;;;;5125283;28;20077;-80
2022/01/13 03:59:24;;;;;;;60.17;21.38;;;5.30;99.90;;;;;;5130532;27;20062;-79
2022/01/13 04:01:51;;;;;;;40.10;17.85;;;5.20;99.90;;;;;;5126248;27;20054;-79
2022/01/13 04:04:17;;;;;;;71.05;19.23;;;5.30;99.90;;;;;;5128539;27;20039;-79
2022/01/13 04:06:44;;;;;;;50.80;19.52;;;5.30;99.90;;;;;;5134637;27;20045;-79
2022/01/13 04:09:10;;;;;;;49.17;20.00;;;5.30;99.90;;;;;;5119760;27;20402;-80
2022/01/13 04:11:37;;;;;;;62.72;19.98;;;5.30;99.90;;;;;;5121590;28;20452;-78
2022/01/13 04:14:06;;;;;;;55.05;20.10;;;5.30;99.90;;;;;;5128049;27;20374;-80
2022/01/13 04:16:33;;;;;;;51.95;19.05;;;5.30;99.90;;;;;;5122546;27;20486;-79
2022/01/13 04:19:03;;;;;;;56.92;18.60;;;5.20;99.90;;;;;;5115570;28;20059;-80
2022/01/13 04:21:30;;;;;;;43.92;18.38;;;5.20;99.90;;;;;;5114097;27;20047;-81
2022/01/13 04:23:57;;;;;;;47.72;19.30;;;5.20;99.90;;;;;;5123319;28;20043;-79
2022/01/13 04:26:27;;;;;;;53.65;17.77;;;5.20;99.90;;;;;;5117822;27;20042;-78
2022/01/13 04:29:01;;;;;;;;;;;5.10;99.90;;;;;;5131358;27;20497;-80
2022/01/13 04:31:28;;;;;;;63.63;20.80;;;5.10;99.90;;;;;;5122836;28;19919;-80
2022/01/13 04:33:54;;;;;;;87.55;25.52;;;5.10;99.90;;;;;;5114835;28;20039;-79
2022/01/13 04:36:21;;;;;;;72.72;24.75;;;5.10;99.90;;;;;;5127722;28;20051;-78
2022/01/13 04:38:47;;;;;;;94.85;27.77;;;5.10;99.90;;;;;;5124052;27;20055;-79
2022/01/13 04:41:22;;;;;;;70.07;22.60;;;5.10;99.90;;;;;;5120260;27;20089;-79
2022/01/13 04:43:49;;;;;;;61.72;22.45;;;5.10;99.90;;;;;;5122315;27;20050;-79
2022/01/13 04:46:15;;;;;;;54.28;20.17;;;5.10;99.90;;;;;;5116495;27;20478;-77
2022/01/13 04:48:42;;;;;;;85.38;21.50;;;5.00;99.90;;;;;;5118339;27;20375;-78
2022/01/13 04:51:08;;;;;;;64.00;20.30;;;5.00;99.90;;;;;;5119573;27;20047;-79
2022/01/13 04:53:35;;;;;;;59.97;20.73;;;5.00;99.90;;;;;;5118726;27;20046;-79
2022/01/13 04:56:09;;;;;;;94.13;23.92;;;5.00;99.90;;;;;;5133670;27;20054;-79
2022/01/13 04:58:35;;;;;;;77.25;21.02;;;5.00;99.90;;;;;;5139963;27;20058;-78
2022/01/13 05:01:02;;;;;;;81.63;22.30;;;4.90;99.90;;;;;;5117771;27;20055;-78
2022/01/13 05:03:28;;;;;;;85.20;21.63;;;5.00;99.90;;;;;;5124989;27;20046;-77
2022/01/13 05:05:55;;;;;;;71.72;22.35;;;4.90;99.90;;;;;;5132929;27;20050;-78
2022/01/13 05:08:22;;;;;;;84.88;22.80;;;5.00;99.90;;;;;;5126179;27;20038;-77
2022/01/13 05:10:48;;;;;;;79.07;22.15;;;4.90;99.90;;;;;;5133727;27;20548;-77
2022/01/13 05:13:15;;;;;;;93.45;21.45;;;4.90;99.90;;;;;;5139210;27;20051;-79
2022/01/13 05:15:43;;;;;;;110.25;24.60;;;5.00;99.90;;;;;;5132007;27;20055;-78
2022/01/13 05:18:15;;;;;;;90.90;24.70;;;5.00;99.90;;;;;;5125222;27;20051;-79
2022/01/13 05:20:50;;;;;;;87.70;20.92;;;5.00;99.90;;;;;;5135375;27;20396;-79
2022/01/13 05:23:17;;;;;;;75.22;21.40;;;5.00;99.90;;;;;;5132627;27;20496;-79
2022/01/13 05:25:43;;;;;;;94.25;24.60;;;5.00;99.90;;;;;;5123455;27;20096;-79
2022/01/13 05:28:10;;;;;;;70.88;23.48;;;5.10;99.90;;;;;;5125323;27;20051;-80
2022/01/13 05:30:37;;;;;;;61.08;21.42;;;5.10;99.90;;;;;;5132969;27;20063;-79
2022/01/13 05:33:03;;;;;;;82.75;21.50;;;5.00;99.90;;;;;;5122852;27;20043;-77
2022/01/13 05:35:30;;;;;;;75.78;22.60;;;5.00;99.90;;;;;;5121737;27;20051;-79
2022/01/13 05:37:56;;;;;;;83.82;21.65;;;5.00;99.90;;;;;;5128793;27;20056;-77
2022/01/13 05:40:23;;;;;;;71.35;23.55;;;5.00;99.90;;;;;;5126713;27;20371;-77
2022/01/13 05:42:49;;;;;;;50.95;22.05;;;5.00;99.90;;;;;;5130450;27;20055;-79
2022/01/13 05:45:17;;;;;;;82.95;22.63;;;5.00;99.90;;;;;;5117156;27;20430;-79
2022/01/13 05:47:43;;;;;;;71.63;23.15;;;5.00;99.90;;;;;;5121604;27;20039;-79
2022/01/13 05:50:10;;;;;;;70.05;21.48;;;5.00;99.90;;;;;;5125132;27;20051;-79
2022/01/13 05:52:37;;;;;;;63.95;21.02;;;5.00;99.90;;;;;;5133087;27;20054;-78
2022/01/13 05:55:04;;;;;;;63.05;19.63;;;4.90;99.90;;;;;;5132507;27;20051;-78
2022/01/13 05:57:30;;;;;;;80.95;22.73;;;4.90;99.90;;;;;;5131715;27;20469;-78
2022/01/13 05:59:57;;;;;;;76.95;21.20;;;4.90;99.90;;;;;;5132970;27;20187;-78
2022/01/13 06:02:23;;;;;;;88.60;22.73;;;4.90;99.90;;;;;;5129853;27;20398;-78
2022/01/13 06:04:50;;;;;;;110.47;24.85;;;4.90;99.90;;;;;;5123529;27;20099;-79
2022/01/13 06:07:17;;;;;;;97.28;21.83;;;4.80;99.90;;;;;;5127261;27;20057;-79
2022/01/13 06:09:43;;;;;;;88.32;24.30;;;4.80;99.90;;;;;;5124238;27;20120;-77
2022/01/13 06:12:10;;;;;;;87.07;22.45;;;4.80;99.90;;;;;;5113916;27;20047;-80
2022/01/13 06:14:36;;;;;;;72.10;21.35;;;4.80;99.90;;;;;;5113956;27;20084;-79
2022/01/13 06:17:03;;;;;;;84.35;23.35;;;4.80;99.90;;;;;;5121476;27;20097;-79
2022/01/13 06:19:31;;;;;;;102.35;24.48;;;4.90;99.90;;;;;;5114857;27;20460;-78
2022/01/13 06:21:57;;;;;;;54.30;19.65;;;4.80;99.90;;;;;;5126850;27;20482;-79
2022/01/13 06:24:24;;;;;;;108.22;26.75;;;4.90;99.90;;;;;;5125894;27;20390;-80
2022/01/13 06:26:50;;;;;;;66.93;22.08;;;4.90;99.90;;;;;;5126147;27;20050;-77
2022/01/13 06:29:17;;;;;;;71.85;22.92;;;4.80;99.90;;;;;;5119831;27;20051;-81
2022/01/13 06:31:43;;;;;;;82.53;25.25;;;4.80;99.90;;;;;;5129019;27;20054;-77
2022/01/13 06:34:10;;;;;;;122.43;25.20;;;4.80;99.90;;;;;;5119014;27;20047;-77
2022/01/13 06:36:36;;;;;;;56.40;21.13;;;4.90;99.90;;;;;;5112120;28;20048;-79
2022/01/13 06:39:03;;;;;;;81.15;24.65;;;4.90;99.90;;;;;;5112553;27;20044;-79
2022/01/13 06:41:30;;;;;;;78.22;23.05;;;4.80;99.90;;;;;;5112277;27;20040;-79
2022/01/13 06:43:56;;;;;;;85.30;22.38;;;4.90;99.90;;;;;;5128362;27;20047;-77
2022/01/13 06:46:23;;;;;;;83.28;22.75;;;5.00;99.90;;;;;;5124938;27;20047;-79
2022/01/13 06:48:50;;;;;;;105.72;24.98;;;5.00;99.90;;;;;;5117331;27;20048;-79
2022/01/13 06:51:16;;;;;;;140.23;26.35;;;5.00;99.90;;;;;;5119418;27;20065;-79
2022/01/13 06:53:43;;;;;;;127.30;26.88;;;5.00;99.90;;;;;;5118557;27;20051;-79
2022/01/13 06:56:09;;;;;;;97.85;23.45;;;5.00;99.90;;;;;;5126036;27;20039;-79
2022/01/13 06:58:36;;;;;;;129.07;29.58;;;5.00;99.90;;;;;;5113138;27;20051;-79
2022/01/13 07:01:02;;;;;;;88.80;25.15;;;5.00;99.90;;;;;;5112290;28;20039;-79
2022/01/13 07:03:29;;;;;;;88.45;26.85;;;5.00;99.90;;;;;;5112668;27;20036;-79
2022/01/13 07:05:55;;;;;;;107.82;25.02;;;5.00;99.90;;;;;;5113193;27;20051;-79
2022/01/13 07:08:22;;;;;;;126.22;27.40;;;5.10;99.90;;;;;;5117439;27;20051;-81
2022/01/13 07:10:48;;;;;;;99.95;26.88;;;5.10;99.90;;;;;;5115739;27;20054;-79
2022/01/13 07:13:15;;;;;;;114.20;26.58;;;5.10;99.90;;;;;;5118153;27;20054;-79
2022/01/13 07:15:41;;;;;;;80.10;25.95;;;5.10;99.90;;;;;;5123579;27;20051;-79
2022/01/13 07:18:08;;;;;;;114.05;25.88;;;5.10;99.90;;;;;;5112167;27;20048;-79
2022/01/13 07:20:35;;;;;;;102.38;26.95;;;5.10;99.90;;;;;;5118903;27;20050;-79
2022/01/13 07:23:01;;;;;;;102.05;28.83;;;5.20;99.90;;;;;;5111711;27;20047;-80
2022/01/13 07:25:28;;;;;;;111.32;27.95;;;5.10;99.90;;;;;;5115321;27;20056;-79
2022/01/13 07:27:55;;;;;;;137.75;27.85;;;5.20;99.90;;;;;;5113303;27;20047;-78
2022/01/13 07:30:21;;;;;;;108.07;27.63;;;5.20;99.90;;;;;;5111277;27;20098;-79
2022/01/13 07:32:48;;;;;;;107.10;27.23;;;5.20;99.90;;;;;;5112302;27;20050;-80
2022/01/13 07:35:14;;;;;;;95.13;24.15;;;5.20;99.90;;;;;;5128460;27;20050;-79
2022/01/13 07:37:42;;;;;;;81.85;25.00;;;5.20;99.90;;;;;;5126209;27;20502;-79
2022/01/13 07:40:13;;;;;;;109.05;26.98;;;5.30;99.90;;;;;;5131752;27;20061;-79
2022/01/13 07:42:41;;;;;;;110.45;27.42;;;5.20;99.90;;;;;;5126677;27;20040;-77
2022/01/13 07:45:08;;;;;;;109.72;27.77;;;5.30;99.90;;;;;;5128990;27;20047;-79
2022/01/13 07:47:34;;;;;;;110.78;28.27;;;5.20;99.90;;;;;;5127974;27;20055;-80
2022/01/13 07:50:01;;;;;;;93.13;30.30;;;5.30;99.90;;;;;;5127378;27;20051;-80
2022/01/13 07:52:27;;;;;;;110.00;29.67;;;5.30;99.90;;;;;;5127106;27;20047;-80
2022/01/13 07:54:54;;;;;;;103.68;27.65;;;5.30;99.90;;;;;;5129829;27;20039;-79
2022/01/13 07:57:21;;;;;;;96.50;28.20;;;5.30;99.90;;;;;;5127565;28;20051;-80
2022/01/13 07:59:47;;;;;;;109.93;29.42;;;5.30;99.90;;;;;;5128452;28;20043;-80
2022/01/13 08:02:14;;;;;;;112.93;29.02;;;5.40;99.90;;;;;;5126185;28;20047;-80
2022/01/13 08:04:40;;;;;;;113.13;27.15;;;5.40;99.90;;;;;;5128220;28;20045;-78
2022/01/13 08:07:07;;;;;;;98.40;28.55;;;5.40;99.90;;;;;;5129243;28;20039;-80
2022/01/13 08:09:33;;;;;;;109.18;28.67;;;5.40;99.90;;;;;;5128562;28;20069;-80
2022/01/13 08:12:00;;;;;;;103.07;27.85;;;5.40;99.90;;;;;;5130285;28;20051;-79
2022/01/13 08:14:26;;;;;;;99.68;28.30;;;5.40;99.90;;;;;;5129062;28;20047;-80
2022/01/13 08:16:56;;;;;;;99.53;25.48;;;5.40;99.90;;;;;;5126462;28;20056;-79
2022/01/13 08:22:07;;;;;;;114.68;28.15;;;5.40;99.90;;;;;;5129650;27;21223;-79
2022/01/13 08:24:33;;;;;;;98.63;26.63;;;5.40;99.90;;;;;;5130804;27;20051;-80
2022/01/13 08:27:00;;;;;;;86.40;25.25;;;5.40;99.90;;;;;;5130744;27;20078;-79
2022/01/13 08:29:27;;;;;;;135.25;29.63;;;5.30;99.90;;;;;;5129170;27;20061;-80
2022/01/13 08:31:53;;;;;;;105.57;25.15;;;5.30;99.90;;;;;;5131733;27;20043;-81
2022/01/13 08:34:20;;;;;;;123.57;30.13;;;5.40;99.90;;;;;;5132255;27;20040;-80
2022/01/13 08:36:46;;;;;;;105.22;26.80;;;5.30;99.90;;;;;;5132677;27;20086;-80
2022/01/13 08:39:13;;;;;;;103.20;26.20;;;5.40;99.90;;;;;;5131550;27;20058;-80
2022/01/13 08:41:39;;;;;;;104.03;27.35;;;5.30;99.90;;;;;;5132006;27;20499;-80
2022/01/13 08:44:06;;;;;;;94.35;25.08;;;5.40;99.90;;;;;;5134521;27;20047;-79
2022/01/13 08:46:32;;;;;;;119.13;26.63;;;5.30;99.90;;;;;;5133003;27;20398;-80
2022/01/13 08:48:59;;;;;;;108.35;26.85;;;5.30;99.90;;;;;;5133485;27;20054;-80
2022/01/13 08:51:25;;;;;;;73.28;24.45;;;5.30;99.90;;;;;;5131857;27;20051;-80
2022/01/13 08:53:52;;;;;;;89.45;23.90;;;5.30;99.90;;;;;;5133188;27;20047;-80
2022/01/13 08:56:19;;;;;;;72.18;23.40;;;5.30;99.90;;;;;;5132069;27;20043;-79
2022/01/13 08:58:46;;;;;;;101.07;26.63;;;5.40;99.90;;;;;;5130084;27;20039;-79
2022/01/13 09:01:13;;;;;;;70.88;24.10;;;5.40;99.90;;;;;;5133474;27;20042;-79
2022/01/13 09:03:40;;;;;;;92.82;27.23;;;5.40;99.90;;;;;;5133556;27;20046;-79
2022/01/13 09:06:06;;;;;;;94.78;26.83;;;5.30;99.90;;;;;;5133709;27;20043;-80
2022/01/13 09:08:33;;;;;;;79.93;26.40;;;5.40;99.90;;;;;;5132341;27;20039;-80
2022/01/13 09:11:00;;;;;;;94.68;26.92;;;5.40;99.90;;;;;;5129341;27;20078;-80
2022/01/13 09:13:26;;;;;;;81.30;25.90;;;5.40;99.90;;;;;;5132018;27;20039;-80
2022/01/13 09:15:58;;;;;;;91.90;26.65;;;5.40;99.90;;;;;;5131262;27;20053;-80
2022/01/13 09:18:33;;;;;;;85.82;28.13;;;5.40;99.90;;;;;;5129340;27;20051;-80
2022/01/13 09:21:00;;;;;;;89.45;26.33;;;5.40;99.90;;;;;;5132881;27;20123;-79
2022/01/13 09:23:26;;;;;;;76.55;23.77;;;5.40;99.90;;;;;;5133385;27;20047;-80
2022/01/13 09:25:54;;;;;;;71.57;24.48;;;5.50;99.90;;;;;;5129368;27;20055;-79
2022/01/13 09:28:21;;;;;;;65.07;25.45;;;5.50;99.90;;;;;;5133587;27;20113;-79
2022/01/13 09:30:47;;;;;;;71.68;25.38;;;5.60;99.90;;;;;;5130810;27;20062;-79
2022/01/13 09:33:14;;;;;;;75.65;23.40;;;5.60;99.90;;;;;;5132724;27;20051;-79
2022/01/13 09:35:40;;;;;;;73.25;28.50;;;5.60;99.90;;;;;;5124204;27;20070;-79
2022/01/13 09:38:07;;;;;;;67.88;23.83;;;5.60;99.90;;;;;;5131936;27;20047;-80
2022/01/13 09:40:34;;;;;;;69.30;25.52;;;5.50;99.90;;;;;;5127679;27;20039;-78
2022/01/13 09:43:02;;;;;;;72.72;25.02;;;5.50;99.90;;;;;;5130819;27;20051;-80
2022/01/13 09:45:28;;;;;;;66.82;26.02;;;5.50;99.90;;;;;;5131838;27;20056;-80
2022/01/13 09:47:55;;;;;;;71.13;25.98;;;5.60;99.90;;;;;;5124758;27;20054;-80
2022/01/13 09:50:21;;;;;;;89.25;25.52;;;5.60;99.90;;;;;;5126708;27;20044;-80
2022/01/13 09:52:48;;;;;;;76.57;24.92;;;5.50;99.90;;;;;;5125209;27;20051;-80
2022/01/13 09:55:14;;;;;;;69.57;28.17;;;5.50;99.90;;;;;;5125704;27;20055;-79
2022/01/13 09:57:41;;;;;;;74.88;26.08;;;5.50;99.90;;;;;;5127528;27;20054;-80
2022/01/13 10:00:07;;;;;;;78.05;24.83;;;5.50;99.90;;;;;;5128870;27;20054;-80
2022/01/13 10:02:34;;;;;;;84.20;25.85;;;5.50;99.90;;;;;;5132417;27;20039;-79
2022/01/13 10:05:00;;;;;;;76.05;25.13;;;5.60;99.90;;;;;;5128113;27;20049;-79
2022/01/13 10:07:27;;;;;;;71.80;25.67;;;5.60;99.90;;;;;;5132982;27;20043;-78
2022/01/13 10:09:53;;;;;;;75.85;25.00;;;5.60;99.90;;;;;;5128360;27;20047;-80
2022/01/13 10:12:20;;;;;;;86.85;28.48;;;5.60;99.90;;;;;;5126995;27;20082;-79
2022/01/13 10:17:36;;;;;;;92.78;25.33;;;5.70;99.90;;;;;;5060985;27;20427;-80
2022/01/13 10:20:03;;;;;;;76.88;26.98;;;5.70;99.90;;;;;;5125754;27;20050;-78
2022/01/13 10:22:29;;;;;;;69.70;26.15;;;5.80;99.90;;;;;;5131404;27;20053;-80
2022/01/13 10:24:58;;;;;;;73.68;25.98;;;5.80;99.90;;;;;;5137211;27;20048;-82
2022/01/13 10:27:24;;;;;;;59.72;24.50;;;5.80;99.90;;;;;;5121451;27;20109;-80
2022/01/13 10:29:51;;;;;;;66.38;25.55;;;5.80;99.90;;;;;;5128123;27;20062;-80
2022/01/13 10:32:17;;;;;;;83.82;28.02;;;5.80;99.90;;;;;;5130604;27;20043;-81
2022/01/13 10:34:44;;;;;;;74.03;26.92;;;5.80;99.90;;;;;;5120126;27;20047;-81
2022/01/13 10:37:14;;;;;;;64.00;25.70;;;5.80;99.90;;;;;;5114923;27;20055;-79
2022/01/13 10:39:40;;;;;;;66.10;26.00;;;5.80;99.90;;;;;;5115151;27;20446;-81
2022/01/13 10:42:20;;;;;;;64.50;25.48;;;5.80;99.90;;;;;;5117058;27;20794;-82
2022/01/13 10:44:47;;;;;;;66.55;25.02;;;5.90;99.90;;;;;;5124813;27;20043;-82
2022/01/13 10:47:13;;;;;;;57.00;25.58;;;5.90;99.90;;;;;;5118172;27;20059;-83
2022/01/13 10:49:42;;;;;;;67.88;26.17;;;5.90;99.90;;;;;;5123047;27;20047;-82
2022/01/13 10:52:09;;;;;;;64.20;26.83;;;5.90;99.90;;;;;;5112782;27;20043;-80
2022/01/13 10:54:35;;;;;;;76.63;27.25;;;5.90;99.90;;;;;;5120072;27;20039;-79
2022/01/13 10:57:02;;;;;;;59.35;24.35;;;5.90;99.90;;;;;;5115417;27;20066;-80
2022/01/13 10:59:28;;;;;;;61.45;25.52;;;6.00;99.90;;;;;;5126224;27;20057;-81
2022/01/13 11:01:55;;;;;;;56.65;25.70;;;6.00;99.90;;;;;;5112539;27;20050;-79
2022/01/13 11:04:21;;;;;;;64.47;24.55;;;6.00;99.90;;;;;;5128163;27;20051;-78
2022/01/13 11:06:48;;;;;;;47.90;23.90;;;6.00;99.90;;;;;;5118501;27;20046;-80
2022/01/13 11:09:15;;;;;;;59.53;24.73;;;6.00;99.90;;;;;;5121614;27;20051;-79
2022/01/13 11:11:45;;;;;;;60.63;24.02;;;6.00;99.90;;;;;;5116054;27;20059;-79
2022/01/13 11:14:24;;;;;;;56.75;24.02;;;6.00;99.90;;;;;;5122117;27;20088;-79
2022/01/13 11:16:51;;;;;;;56.10;24.20;;;6.00;99.90;;;;;;5118305;27;20043;-80
2022/01/13 11:19:17;;;;;;;66.55;25.15;;;6.00;99.90;;;;;;5126665;27;20058;-79
2022/01/13 11:21:44;;;;;;;59.83;24.55;;;5.90;99.90;;;;;;5122107;27;20044;-79
2022/01/13 11:24:10;;;;;;;47.75;22.77;;;6.00;99.90;;;;;;5113496;27;20055;-78
2022/01/13 11:26:37;;;;;;;50.35;21.55;;;6.00;99.90;;;;;;5120356;27;20055;-79
2022/01/13 11:29:04;;;;;;;49.58;24.35;;;5.90;99.90;;;;;;5124265;27;20051;-81
2022/01/13 11:31:30;;;;;;;43.35;21.67;;;6.00;99.90;;;;;;5127990;27;20046;-78
2022/01/13 11:33:57;;;;;;;55.35;23.55;;;6.10;99.90;;;;;;5122994;27;20043;-79
2022/01/13 11:36:23;;;;;;;52.67;23.65;;;6.10;99.90;;;;;;5131048;27;20047;-78
2022/01/13 11:38:50;;;;;;;52.97;23.60;;;6.10;99.90;;;;;;5130410;27;20057;-79
2022/01/13 11:41:16;;;;;;;46.35;23.15;;;6.00;99.90;;;;;;5132886;27;20046;-79
2022/01/13 11:43:43;;;;;;;46.42;22.35;;;6.00;99.90;;;;;;5149993;27;20047;-79
2022/01/13 11:46:09;;;;;;;49.53;23.02;;;6.10;99.90;;;;;;5131068;27;20054;-77
2022/01/13 11:48:38;;;;;;;49.88;22.38;;;6.10;99.90;;;;;;5151346;27;20054;-77
2022/01/13 11:51:05;;;;;;;43.53;22.55;;;6.10;99.90;;;;;;5128623;27;20043;-79
2022/01/13 11:53:32;;;;;;;53.13;22.80;;;6.10;99.90;;;;;;5149561;27;20446;-78
2022/01/13 11:55:58;;;;;;;48.35;21.27;;;6.10;99.90;;;;;;5133053;27;20050;-79
2022/01/13 11:58:26;;;;;;;64.13;27.08;;;6.10;99.90;;;;;;5122674;27;20053;-78
2022/01/13 12:00:53;;;;;;;57.03;25.10;;;6.00;99.90;;;;;;5126019;28;20082;-80
2022/01/13 12:03:19;;;;;;;50.95;22.85;;;6.10;99.90;;;;;;5133292;27;20518;-79
2022/01/13 12:05:46;;;;;;;47.25;21.88;;;6.10;99.90;;;;;;5112270;28;20051;-79
2022/01/13 12:08:13;;;;;;;54.47;24.40;;;6.00;99.90;;;;;;5140110;27;20924;-78
2022/01/13 12:10:40;;;;;;;48.72;23.17;;;6.10;99.90;;;;;;5147585;27;20100;-78
2022/01/13 12:13:06;;;;;;;65.55;25.13;;;6.10;99.90;;;;;;5129830;27;20051;-79
2022/01/13 12:15:33;;;;;;;52.58;25.67;;;6.10;99.90;;;;;;5121448;27;20066;-79
2022/01/13 12:18:01;;;;;;;50.42;23.20;;;6.10;99.90;;;;;;5116839;27;20064;-79
2022/01/13 12:20:37;;;;;;;53.30;24.48;;;6.10;99.90;;;;;;5119525;27;20070;-79
2022/01/13 12:23:15;;;;;;;55.72;23.80;;;6.10;99.90;;;;;;5118252;27;20066;-79
2022/01/13 12:25:42;;;;;;;49.47;23.75;;;6.10;99.90;;;;;;5121461;27;20050;-79
2022/01/13 12:28:08;;;;;;;56.72;23.58;;;6.20;99.90;;;;;;5126706;27;20057;-78
2022/01/13 12:30:36;;;;;;;63.13;24.95;;;6.20;99.90;;;;;;5123667;27;21244;-79
2022/01/13 12:33:03;;;;;;;50.80;25.08;;;6.20;99.90;;;;;;5119929;28;20047;-80
2022/01/13 12:35:30;;;;;;;46.22;23.48;;;6.20;99.90;;;;;;5116681;27;20047;-79
2022/01/13 12:37:56;;;;;;;51.95;24.10;;;6.20;99.90;;;;;;5122040;27;20568;-80
2022/01/13 12:40:24;;;;;;;51.63;24.83;;;6.20;99.90;;;;;;5125597;27;20061;-79
2022/01/13 12:42:52;;;;;;;53.70;25.13;;;6.20;99.90;;;;;;5125633;27;20089;-79